createdAt,value
2018-12-20T00:00:23.936Z,4.30
2018-12-20T00:05:26.954Z,4.31
2018-12-20T00:10:30.177Z,4.30
2018-12-20T00:15:33.257Z,4.30
2018-12-20T00:20:36.247Z,4.32
2018-12-20T00:25:39.349Z,4.30
2018-12-20T00:30:42.494Z,4.28
2018-12-20T00:35:45.420Z,4.25
2018-12-20T00:40:48.414Z,4.26
2018-12-20T00:45:51.231Z,4.25
2018-12-20T00:50:54.187Z,4.18
2018-12-20T00:55:57.160Z,4.18
2018-12-20T01:01:00.018Z,4.19
2018-12-20T01:06:03.141Z,4.21
2018-12-20T01:11:07.270Z,4.19
2018-12-20T01:16:10.040Z,4.15
2018-12-20T01:21:13.008Z,4.18
2018-12-20T01:26:15.799Z,4.18
2018-12-20T01:31:18.598Z,4.16
2018-12-20T01:36:22.502Z,4.17
2018-12-20T01:41:25.390Z,4.21
2018-12-20T01:46:28.306Z,4.24
2018-12-20T01:51:31.498Z,4.24
2018-12-20T01:56:34.425Z,4.25
2018-12-20T02:01:37.394Z,4.28
2018-12-20T02:06:40.576Z,4.33
2018-12-20T02:11:43.485Z,4.34
2018-12-20T02:16:46.389Z,4.40
2018-12-20T02:21:49.276Z,4.41
2018-12-20T02:26:52.796Z,4.39
2018-12-20T02:37:10.590Z,4.40
2018-12-20T02:42:13.902Z,4.37
2018-12-20T02:47:16.900Z,4.37
2018-12-20T02:52:19.940Z,4.38
2018-12-20T02:57:23.030Z,4.35
2018-12-20T03:02:26.284Z,4.36
2018-12-20T03:07:29.115Z,4.36
2018-12-20T03:12:32.357Z,4.33
2018-12-20T03:17:35.496Z,4.29
2018-12-20T03:22:38.568Z,4.30
2018-12-20T03:27:41.692Z,4.30
2018-12-20T03:32:44.868Z,4.30
2018-12-20T03:37:47.915Z,4.29
2018-12-20T03:42:50.878Z,4.30
2018-12-20T03:47:53.568Z,4.30
2018-12-20T03:52:56.456Z,4.30
2018-12-20T03:57:59.379Z,4.27
2018-12-20T04:03:02.422Z,4.20
2018-12-20T04:08:05.707Z,4.19
2018-12-20T04:13:08.567Z,4.18
2018-12-20T04:18:12.512Z,4.15
2018-12-20T04:23:15.140Z,4.16
2018-12-20T04:28:18.065Z,4.13
2018-12-20T04:33:21.090Z,4.13
2018-12-20T04:38:24.067Z,4.12
2018-12-20T04:43:27.104Z,4.15
2018-12-20T04:48:29.977Z,4.19
2018-12-20T04:53:32.536Z,4.23
2018-12-20T04:58:35.565Z,4.25
2018-12-20T05:03:38.522Z,4.23
2018-12-20T05:08:41.229Z,4.19
2018-12-20T05:13:44.215Z,4.16
2018-12-20T05:18:46.987Z,4.19
2018-12-20T05:23:49.741Z,4.21
2018-12-20T05:28:52.410Z,4.21
2018-12-20T05:33:55.400Z,4.17
2018-12-20T05:38:58.597Z,4.20
2018-12-20T05:44:01.664Z,4.19
2018-12-20T05:49:04.775Z,4.19
2018-12-20T05:54:08.892Z,4.16
2018-12-20T05:59:11.783Z,4.15
2018-12-20T06:04:14.572Z,4.13
2018-12-20T06:09:17.510Z,4.16
2018-12-20T06:14:20.694Z,4.18
2018-12-20T06:19:23.856Z,4.19
2018-12-20T06:24:26.807Z,4.21
2018-12-20T06:29:29.923Z,4.23
2018-12-20T06:34:33.027Z,4.18
2018-12-20T06:39:36.118Z,4.21
2018-12-20T06:44:39.099Z,4.22
2018-12-20T06:49:43.391Z,4.22
2018-12-20T06:54:46.538Z,4.18
2018-12-20T06:59:49.361Z,4.15
2018-12-20T07:04:52.827Z,4.13
2018-12-20T07:09:56.271Z,4.12
2018-12-20T07:14:59.403Z,4.08
2018-12-20T07:20:02.595Z,4.08
2018-12-20T07:25:06.222Z,4.03
2018-12-20T07:30:10.817Z,3.99
2018-12-20T07:35:14.025Z,3.96
2018-12-20T07:40:17.218Z,3.98
2018-12-20T07:45:20.258Z,3.97
2018-12-20T07:50:23.903Z,3.97
2018-12-20T07:55:26.644Z,3.97
2018-12-20T08:00:33.963Z,3.98
2018-12-20T08:05:37.970Z,3.99
2018-12-20T08:10:41.664Z,4.02
2018-12-20T08:15:44.417Z,4.04
2018-12-20T08:20:47.553Z,4.08
2018-12-20T08:25:50.505Z,4.15
2018-12-20T08:30:53.512Z,4.30
2018-12-20T08:35:56.408Z,4.39
2018-12-20T08:40:59.478Z,4.42
2018-12-20T08:46:02.454Z,4.48
2018-12-20T08:51:05.430Z,4.47
2018-12-20T08:56:08.294Z,4.44
2018-12-20T09:01:11.049Z,4.44
2018-12-20T09:06:13.841Z,4.51
2018-12-20T09:11:16.837Z,4.61
2018-12-20T09:16:19.525Z,4.61
2018-12-20T09:21:22.384Z,4.71
2018-12-20T09:26:25.228Z,4.74
2018-12-20T09:31:28.286Z,4.69
2018-12-20T09:36:31.429Z,4.76
2018-12-20T09:41:34.417Z,4.79
2018-12-20T09:46:37.305Z,4.81
2018-12-20T09:51:40.174Z,4.83
2018-12-20T09:56:42.931Z,4.79
2018-12-20T10:01:45.810Z,4.85
2018-12-20T10:06:48.701Z,4.94
2018-12-20T10:11:51.699Z,5.07
2018-12-20T10:16:54.524Z,5.07
2018-12-20T10:21:57.166Z,5.23
2018-12-20T10:27:00.062Z,5.29
2018-12-20T10:32:02.755Z,5.40
2018-12-20T10:37:05.702Z,5.51
2018-12-20T10:42:08.487Z,5.59
2018-12-20T10:47:18.235Z,5.54
2018-12-20T10:52:20.983Z,5.54
2018-12-20T10:57:23.787Z,5.62
2018-12-20T11:02:32.404Z,5.58
2018-12-20T11:07:40.838Z,5.55
2018-12-20T11:12:48.038Z,5.54
2018-12-20T11:17:50.917Z,5.54
2018-12-20T11:22:53.933Z,5.56
2018-12-20T11:27:56.721Z,5.62
2018-12-20T11:32:59.767Z,5.66
2018-12-20T11:38:02.565Z,5.69
2018-12-20T11:43:05.373Z,5.73
2018-12-20T11:48:08.210Z,5.76
2018-12-20T11:53:11.021Z,5.70
2018-12-20T11:58:13.780Z,5.70
2018-12-20T12:03:16.810Z,5.75
2018-12-20T12:08:19.573Z,5.73
2018-12-20T12:13:22.252Z,5.70
2018-12-20T12:18:24.984Z,5.78
2018-12-20T12:23:27.836Z,5.88
2018-12-20T12:28:30.870Z,5.87
2018-12-20T12:33:33.816Z,5.85
2018-12-20T12:38:36.946Z,5.95
2018-12-20T12:43:39.704Z,6.06
2018-12-20T12:48:42.370Z,6.16
2018-12-20T12:53:44.993Z,6.17
2018-12-20T12:58:47.773Z,6.18
2018-12-20T13:03:50.606Z,6.19
2018-12-20T13:08:53.461Z,6.18
2018-12-20T13:13:57.484Z,6.25
2018-12-20T13:19:00.342Z,6.20
2018-12-20T13:24:03.261Z,6.10
2018-12-20T13:29:06.029Z,6.09
2018-12-20T13:34:08.897Z,6.03
2018-12-20T13:39:11.597Z,5.96
2018-12-20T13:44:14.441Z,5.97
2018-12-20T13:49:17.269Z,5.97
2018-12-20T13:54:20.870Z,6.02
2018-12-20T13:59:23.862Z,6.06
2018-12-20T14:04:26.721Z,6.04
2018-12-20T14:09:29.557Z,5.99
2018-12-20T14:14:32.430Z,5.98
2018-12-20T14:19:35.149Z,5.99
2018-12-20T14:24:37.811Z,5.97
2018-12-20T14:29:40.461Z,5.97
2018-12-20T14:34:43.353Z,5.98
2018-12-20T14:39:46.264Z,6.01
2018-12-20T14:44:48.991Z,5.97
2018-12-20T14:49:52.198Z,5.95
2018-12-20T14:54:54.964Z,5.98
2018-12-20T15:00:01.758Z,5.99
2018-12-20T15:05:05.616Z,5.98
2018-12-20T15:10:09.773Z,5.96
2018-12-20T15:15:12.553Z,5.95
2018-12-20T15:20:15.561Z,5.90
2018-12-20T15:25:18.699Z,5.89
2018-12-20T15:30:21.743Z,5.88
2018-12-20T15:35:25.059Z,5.85
2018-12-20T15:40:28.017Z,5.83
2018-12-20T15:45:30.784Z,5.82
2018-12-20T15:50:33.833Z,5.80
2018-12-20T15:55:36.733Z,5.77
2018-12-20T16:00:39.665Z,5.74
2018-12-20T16:05:42.894Z,5.70
2018-12-20T16:10:45.917Z,5.65
2018-12-20T16:15:48.840Z,5.62
2018-12-20T16:20:51.669Z,5.62
2018-12-20T16:25:54.492Z,5.60
2018-12-20T16:30:57.378Z,5.60
2018-12-20T16:35:59.933Z,5.60
2018-12-20T16:41:02.856Z,5.59
2018-12-20T16:46:05.708Z,5.58
2018-12-20T16:51:08.694Z,5.64
2018-12-20T16:56:11.562Z,5.64
2018-12-20T17:01:14.904Z,5.70
2018-12-20T17:06:19.196Z,5.70
2018-12-20T17:11:22.282Z,5.68
2018-12-20T17:16:25.130Z,5.64
2018-12-20T17:21:27.992Z,5.65
2018-12-20T17:26:30.962Z,5.65
2018-12-20T17:31:33.711Z,5.64
2018-12-20T17:36:36.679Z,5.68
2018-12-20T17:41:39.491Z,5.70
2018-12-20T17:46:42.236Z,5.73
2018-12-20T17:51:45.205Z,5.79
2018-12-20T17:56:48.107Z,5.84
2018-12-20T18:01:51.258Z,5.84
2018-12-20T18:06:54.154Z,5.86
2018-12-20T18:11:57.292Z,5.87
2018-12-20T18:17:00.297Z,5.88
2018-12-20T18:22:03.217Z,5.92
2018-12-20T18:27:06.109Z,5.97
2018-12-20T18:32:08.979Z,6.00
2018-12-20T18:37:11.992Z,6.02
2018-12-20T18:42:14.955Z,6.04
2018-12-20T18:47:17.805Z,6.02
2018-12-20T18:52:20.618Z,5.98
2018-12-20T18:57:23.446Z,6.01
2018-12-20T19:02:26.381Z,6.03
2018-12-20T19:07:29.408Z,6.02
2018-12-20T19:12:32.492Z,6.05
2018-12-20T19:17:35.447Z,6.06
2018-12-20T19:22:38.550Z,6.06
2018-12-20T19:27:41.627Z,6.07
2018-12-20T19:32:44.267Z,6.09
2018-12-20T19:37:46.906Z,6.11
2018-12-20T19:42:49.694Z,6.11
2018-12-20T19:47:52.537Z,6.14
2018-12-20T19:52:56.553Z,6.18
2018-12-20T19:57:59.433Z,6.18
2018-12-20T20:03:02.375Z,6.17
2018-12-20T20:08:05.478Z,6.19
2018-12-20T20:13:08.258Z,6.17
2018-12-20T20:18:11.075Z,6.16
2018-12-20T20:23:13.874Z,6.15
2018-12-20T20:28:16.812Z,6.11
2018-12-20T20:33:19.735Z,6.10
2018-12-20T20:38:22.417Z,6.09
2018-12-20T20:43:25.190Z,6.09
2018-12-20T20:48:30.432Z,6.10
2018-12-20T20:53:34.551Z,6.09
2018-12-20T20:58:37.727Z,6.03
2018-12-20T21:03:40.582Z,6.05
2018-12-20T21:08:43.498Z,6.04
2018-12-20T21:13:46.456Z,6.03
2018-12-20T21:18:49.255Z,6.04
2018-12-20T21:23:52.304Z,6.07
2018-12-20T21:28:54.929Z,6.07
2018-12-20T21:33:57.992Z,6.08
2018-12-20T21:39:00.824Z,6.07
2018-12-20T21:44:03.728Z,6.07
2018-12-20T21:49:06.639Z,6.08
2018-12-20T21:54:09.615Z,6.07
2018-12-20T21:59:12.558Z,6.09
2018-12-20T22:04:15.450Z,6.10
2018-12-20T22:09:18.362Z,6.09
2018-12-20T22:14:21.069Z,6.09
2018-12-20T22:19:24.113Z,6.10
2018-12-20T22:24:27.439Z,6.09
2018-12-20T22:29:30.378Z,6.08
2018-12-20T22:34:33.309Z,6.07
2018-12-20T22:39:35.875Z,6.07
2018-12-20T22:44:38.569Z,6.08
2018-12-20T22:49:41.336Z,6.08
2018-12-20T22:54:44.173Z,6.10
2018-12-20T22:59:46.941Z,6.10
2018-12-20T23:04:49.668Z,6.12
2018-12-20T23:09:52.519Z,6.11
2018-12-20T23:14:55.505Z,6.13
2018-12-20T23:19:58.486Z,6.12
2018-12-20T23:25:01.421Z,6.14
2018-12-20T23:30:05.485Z,6.17
2018-12-20T23:35:08.645Z,6.18
2018-12-20T23:40:11.644Z,6.19
2018-12-20T23:45:14.577Z,6.20
2018-12-20T23:50:17.283Z,6.19
2018-12-20T23:55:20.288Z,6.19
